createdAt,value
2018-02-10T00:01:23.629Z,31.30
2018-02-10T00:03:53.032Z,32.63
2018-02-10T00:06:22.389Z,33.55
2018-02-10T00:08:51.745Z,32.95
2018-02-10T00:11:20.991Z,41.28
2018-02-10T00:13:51.728Z,35.95
2018-02-10T00:16:21.694Z,34.38
2018-02-10T00:18:51.091Z,34.70
2018-02-10T00:21:20.855Z,40.03
2018-02-10T00:23:49.966Z,45.83
2018-02-10T00:26:19.966Z,38.50
2018-02-10T00:28:49.746Z,39.20
2018-02-10T00:31:18.974Z,44.25
2018-02-10T00:33:48.801Z,44.17
2018-02-10T00:36:18.693Z,39.13
2018-02-10T00:38:48.141Z,41.80
2018-02-10T00:41:17.215Z,37.55
2018-02-10T00:43:47.285Z,37.00
2018-02-10T00:46:17.357Z,40.43
2018-02-10T00:48:46.859Z,49.45
2018-02-10T00:51:16.949Z,34.53
2018-02-10T00:53:51.855Z,31.83
2018-02-10T00:56:20.940Z,34.95
2018-02-10T00:58:51.024Z,33.88
2018-02-10T01:01:20.222Z,29.23
2018-02-10T01:03:50.952Z,33.85
2018-02-10T01:06:20.919Z,32.45
2018-02-10T01:08:53.600Z,40.47
2018-02-10T01:11:23.835Z,30.17
2018-02-10T01:13:54.118Z,42.35
2018-02-10T01:16:26.475Z,35.95
2018-02-10T01:18:57.324Z,37.22
2018-02-10T01:21:29.308Z,38.35
2018-02-10T01:23:58.269Z,38.72
2018-02-10T01:26:27.369Z,40.25
2018-02-10T01:28:57.320Z,39.28
2018-02-10T01:31:26.274Z,37.03
2018-02-10T01:33:55.792Z,34.72
2018-02-10T01:36:26.842Z,34.22
2018-02-10T01:38:55.818Z,39.33
2018-02-10T01:41:24.949Z,38.77
2018-02-10T01:43:56.571Z,29.35
2018-02-10T01:46:25.493Z,34.67
2018-02-10T01:48:55.067Z,30.15
2018-02-10T01:51:25.741Z,32.92
2018-02-10T01:53:54.795Z,38.13
2018-02-10T01:56:24.016Z,35.78
2018-02-10T01:58:54.525Z,39.63
2018-02-10T02:01:23.457Z,41.40
2018-02-10T02:03:53.453Z,37.13
2018-02-10T02:06:27.442Z,29.17
2018-02-10T02:08:57.551Z,29.67
2018-02-10T02:11:27.992Z,31.50
2018-02-10T02:13:57.087Z,31.85
2018-02-10T02:16:26.294Z,29.87
2018-02-10T02:18:55.495Z,25.80
2018-02-10T02:21:25.595Z,26.25
2018-02-10T02:23:54.742Z,31.00
2018-02-10T02:26:23.694Z,29.00
2018-02-10T02:28:53.415Z,36.25
2018-02-10T02:31:23.394Z,35.65
2018-02-10T02:33:52.621Z,35.08
2018-02-10T02:36:22.685Z,30.20
2018-02-10T02:38:51.744Z,37.72
2018-02-10T02:41:20.848Z,36.45
2018-02-10T02:43:50.649Z,42.47
2018-02-10T02:46:20.405Z,41.97
2018-02-10T02:48:49.452Z,38.90
2018-02-10T02:51:20.424Z,43.35
2018-02-10T02:53:50.237Z,45.00
2018-02-10T02:56:20.137Z,32.45
2018-02-10T02:58:50.134Z,36.97
2018-02-10T03:01:19.135Z,35.28
2018-02-10T03:03:48.225Z,34.97
2018-02-10T03:06:18.793Z,31.43
2018-02-10T03:08:50.512Z,39.30
2018-02-10T03:11:22.065Z,36.88
2018-02-10T03:13:51.077Z,34.40
2018-02-10T03:16:22.085Z,32.17
2018-02-10T03:18:53.761Z,37.97
2018-02-10T03:21:22.687Z,31.48
2018-02-10T03:23:51.746Z,32.65
2018-02-10T03:26:20.910Z,36.15
2018-02-10T03:28:50.141Z,38.13
2018-02-10T03:31:20.101Z,31.00
2018-02-10T03:33:50.794Z,28.35
2018-02-10T03:36:19.888Z,29.67
2018-02-10T03:38:48.989Z,31.02
2018-02-10T03:41:19.718Z,34.97
2018-02-10T03:43:49.845Z,31.17
2018-02-10T03:46:18.863Z,32.67
2018-02-10T03:48:50.744Z,29.33
2018-02-10T03:51:19.787Z,30.90
2018-02-10T03:53:49.705Z,36.90
2018-02-10T03:56:18.937Z,37.38
2018-02-10T03:58:47.998Z,32.10
2018-02-10T04:01:16.886Z,32.47
2018-02-10T04:03:46.729Z,36.00
2018-02-10T04:06:15.799Z,33.92
2018-02-10T04:08:44.859Z,32.28
2018-02-10T04:11:15.663Z,32.13
2018-02-10T04:13:44.727Z,41.05
2018-02-10T04:16:14.641Z,41.97
2018-02-10T04:18:45.511Z,34.10
2018-02-10T04:21:14.472Z,31.80
2018-02-10T04:23:43.698Z,35.53
2018-02-10T04:26:14.312Z,31.17
2018-02-10T04:28:50.411Z,34.17
2018-02-10T04:31:19.572Z,28.58
2018-02-10T04:33:50.126Z,32.05
2018-02-10T04:36:19.233Z,34.15
2018-02-10T04:38:53.413Z,29.83
2018-02-10T04:41:22.476Z,32.65
2018-02-10T04:43:51.502Z,35.22
2018-02-10T04:46:22.542Z,34.05
2018-02-10T04:48:51.741Z,34.15
2018-02-10T04:51:21.489Z,32.50
2018-02-10T04:53:50.419Z,30.40
2018-02-10T04:56:19.751Z,36.70
2018-02-10T04:58:48.774Z,41.08
2018-02-10T05:01:18.349Z,35.25
2018-02-10T05:03:48.055Z,39.78
2018-02-10T05:06:17.977Z,35.95
2018-02-10T05:08:47.066Z,35.55
2018-02-10T05:11:16.164Z,33.75
2018-02-10T05:13:46.794Z,34.35
2018-02-10T05:16:17.734Z,36.60
2018-02-10T05:18:49.530Z,34.45
2018-02-10T05:21:18.589Z,34.80
2018-02-10T05:23:47.501Z,40.40
2018-02-10T05:26:18.253Z,38.30
2018-02-10T05:28:47.452Z,40.65
2018-02-10T05:31:16.512Z,40.33
2018-02-10T05:33:45.610Z,41.57
2018-02-10T05:36:17.722Z,34.53
2018-02-10T05:38:46.799Z,32.97
2018-02-10T05:41:15.864Z,26.83
2018-02-10T05:43:45.718Z,28.20
2018-02-10T05:46:14.772Z,35.53
2018-02-10T05:48:43.764Z,24.30
2018-02-10T05:51:13.819Z,26.47
2018-02-10T05:53:42.707Z,24.37
2018-02-10T05:56:11.769Z,30.23
2018-02-10T05:58:44.032Z,21.00
2018-02-10T06:01:14.044Z,23.03
2018-02-10T06:03:46.226Z,21.03
2018-02-10T06:06:15.251Z,21.37
2018-02-10T06:08:45.178Z,22.03
2018-02-10T06:11:15.882Z,20.60
2018-02-10T06:13:44.866Z,20.07
2018-02-10T06:16:13.862Z,24.80
2018-02-10T06:18:44.703Z,22.87
2018-02-10T06:21:13.690Z,21.17
2018-02-10T06:23:42.732Z,22.90
2018-02-10T06:26:11.820Z,27.80
2018-02-10T06:28:40.906Z,27.43
2018-02-10T06:31:10.924Z,22.23
2018-02-10T06:33:41.349Z,23.80
2018-02-10T06:36:10.352Z,26.33
2018-02-10T06:38:39.510Z,27.63
2018-02-10T06:41:09.530Z,26.50
2018-02-10T06:43:39.517Z,28.47
2018-02-10T06:46:09.917Z,26.90
2018-02-10T06:48:39.929Z,28.10
2018-02-10T06:51:09.037Z,24.10
2018-02-10T06:53:38.011Z,27.63
2018-02-10T06:56:07.273Z,39.73
2018-02-10T06:58:36.209Z,44.17
2018-02-10T07:01:05.958Z,39.50
2018-02-10T07:03:37.642Z,38.97
2018-02-10T07:06:06.734Z,33.10
2018-02-10T07:08:35.728Z,28.90
2018-02-10T07:11:08.513Z,24.70
2018-02-10T07:13:38.428Z,28.23
2018-02-10T07:16:07.427Z,25.10
2018-02-10T07:18:38.165Z,21.87
2018-02-10T07:21:07.098Z,25.00
2018-02-10T07:23:36.197Z,18.80
2018-02-10T07:26:08.621Z,15.70
2018-02-10T07:28:39.394Z,25.10
2018-02-10T07:31:08.446Z,19.70
2018-02-10T07:33:38.437Z,17.47
2018-02-10T07:36:07.470Z,21.17
2018-02-10T07:38:36.451Z,18.07
2018-02-10T07:41:06.276Z,16.47
2018-02-10T07:43:35.262Z,17.57
2018-02-10T07:46:04.456Z,17.60
2018-02-10T07:48:34.474Z,16.73
2018-02-10T07:51:04.425Z,20.83
2018-02-10T07:53:33.385Z,16.40
2018-02-10T07:56:02.616Z,18.30
2018-02-10T07:58:32.191Z,17.20
2018-02-10T08:01:01.302Z,16.80
2018-02-10T08:03:31.685Z,14.47
2018-02-10T08:06:01.605Z,15.40
2018-02-10T08:08:30.520Z,13.50
2018-02-10T08:11:03.238Z,19.53
2018-02-10T08:13:32.925Z,20.63
2018-02-10T08:16:01.912Z,18.03
2018-02-10T08:18:34.793Z,23.23
2018-02-10T08:21:03.853Z,22.30
2018-02-10T08:23:33.853Z,25.50
2018-02-10T08:26:07.245Z,18.00
2018-02-10T08:28:37.058Z,24.97
2018-02-10T08:31:06.110Z,24.87
2018-02-10T08:33:37.070Z,25.10
2018-02-10T08:36:07.649Z,16.33
2018-02-10T08:38:36.708Z,25.00
2018-02-10T08:41:07.448Z,24.93
2018-02-10T08:43:37.241Z,20.80
2018-02-10T08:46:07.384Z,22.33
2018-02-10T08:48:37.459Z,20.50
2018-02-10T08:51:07.490Z,21.30
2018-02-10T08:53:36.506Z,20.53
2018-02-10T08:56:05.617Z,28.53
2018-02-10T08:58:34.716Z,38.60
2018-02-10T09:01:04.424Z,22.80
2018-02-10T09:03:34.081Z,24.30
2018-02-10T09:06:04.746Z,25.03
2018-02-10T09:08:33.929Z,19.20
2018-02-10T09:11:03.117Z,21.43
2018-02-10T09:13:32.380Z,19.87
2018-02-10T09:16:01.410Z,19.60
2018-02-10T09:18:31.520Z,22.07
2018-02-10T09:21:00.632Z,18.83
2018-02-10T09:23:29.591Z,14.10
2018-02-10T09:26:00.401Z,24.13
2018-02-10T09:28:29.554Z,13.10
2018-02-10T09:30:58.754Z,20.03
2018-02-10T09:33:31.425Z,19.70
2018-02-10T09:36:01.963Z,18.40
2018-02-10T09:38:32.169Z,24.67
2018-02-10T09:41:01.181Z,22.90
2018-02-10T09:43:30.224Z,15.17
2018-02-10T09:46:00.051Z,13.20
2018-02-10T09:48:29.084Z,19.00
2018-02-10T09:50:58.980Z,16.47
2018-02-10T09:53:43.636Z,23.07
2018-02-10T09:56:14.521Z,18.80
2018-02-10T09:58:44.754Z,17.37
2018-02-10T10:01:14.739Z,18.50
2018-02-10T10:03:44.038Z,18.33
2018-02-10T10:06:13.738Z,21.53
2018-02-10T10:08:42.743Z,16.40
2018-02-10T10:11:12.642Z,21.70
2018-02-10T10:13:46.163Z,14.83
2018-02-10T10:16:18.177Z,19.50
2018-02-10T10:18:47.381Z,20.77
2018-02-10T10:21:17.035Z,21.63
2018-02-10T10:23:46.955Z,18.77
2018-02-10T10:26:16.865Z,17.70
2018-02-10T10:28:45.962Z,16.10
2018-02-10T10:31:15.465Z,17.27
2018-02-10T10:33:44.764Z,24.07
2018-02-10T10:36:14.731Z,22.13
2018-02-10T10:38:43.837Z,20.87
2018-02-10T10:41:14.103Z,19.67
2018-02-10T10:43:43.291Z,19.70
2018-02-10T10:46:12.346Z,16.43
2018-02-10T10:48:41.714Z,19.50
2018-02-10T10:51:10.873Z,27.23
2018-02-10T10:53:40.411Z,19.10
2018-02-10T10:56:09.444Z,20.47
2018-02-10T10:58:39.285Z,28.30
2018-02-10T11:01:08.512Z,18.07
2018-02-10T11:03:40.984Z,19.63
2018-02-10T11:06:10.899Z,20.17
2018-02-10T11:08:39.897Z,21.10
2018-02-10T11:11:09.718Z,22.73
2018-02-10T11:13:39.553Z,29.93
2018-02-10T11:16:09.666Z,27.00
2018-02-10T11:18:40.662Z,28.47
2018-02-10T11:21:10.295Z,20.70
2018-02-10T11:23:43.282Z,21.40
2018-02-10T11:26:12.277Z,21.63
2018-02-10T11:28:41.508Z,28.50
2018-02-10T11:31:10.657Z,20.63
2018-02-10T11:33:40.382Z,25.40
2018-02-10T11:36:12.087Z,24.47
2018-02-10T11:38:41.193Z,20.93
2018-02-10T11:41:10.436Z,20.10
2018-02-10T11:43:40.187Z,22.47
2018-02-10T11:46:09.138Z,20.13
2018-02-10T11:48:38.273Z,23.23
2018-02-10T11:51:10.168Z,19.00
2018-02-10T11:53:39.276Z,23.20
2018-02-10T11:56:09.177Z,21.77
2018-02-10T11:58:39.088Z,25.00
2018-02-10T12:01:08.191Z,23.83
2018-02-10T12:03:37.114Z,23.57
2018-02-10T12:06:07.746Z,21.43
2018-02-10T12:08:36.706Z,28.60
2018-02-10T12:11:07.783Z,22.20
2018-02-10T12:13:42.819Z,22.50
2018-02-10T12:16:11.841Z,24.60
2018-02-10T12:18:41.731Z,22.13
2018-02-10T12:21:11.628Z,25.80
2018-02-10T12:23:40.635Z,27.37
2018-02-10T12:26:09.835Z,45.37
2018-02-10T12:28:38.886Z,33.13
2018-02-10T12:31:08.128Z,102.87
2018-02-10T12:33:38.020Z,30.07
2018-02-10T12:36:08.847Z,38.00
2018-02-10T12:38:38.833Z,30.80
2018-02-10T12:41:08.017Z,27.20
2018-02-10T12:43:37.431Z,29.17
2018-02-10T12:46:07.661Z,27.43
2018-02-10T12:48:45.501Z,24.33
2018-02-10T12:51:14.931Z,26.43
2018-02-10T12:53:44.246Z,24.77
2018-02-10T12:56:15.008Z,26.63
2018-02-10T12:58:44.617Z,25.27
2018-02-10T13:01:14.221Z,23.60
2018-02-10T13:03:44.445Z,25.50
2018-02-10T13:06:13.952Z,27.90
2018-02-10T13:08:43.302Z,26.60
2018-02-10T13:11:13.071Z,31.23
2018-02-10T13:13:42.365Z,29.40
2018-02-10T13:16:11.724Z,31.30
2018-02-10T13:18:41.812Z,29.47
2018-02-10T13:21:10.978Z,25.47
2018-02-10T13:23:40.096Z,24.13
2018-02-10T13:26:10.827Z,21.53
2018-02-10T13:28:40.119Z,26.53
2018-02-10T13:31:09.181Z,22.50
2018-02-10T13:33:40.934Z,24.03
2018-02-10T13:36:10.958Z,32.57
2018-02-10T13:38:40.080Z,26.80
2018-02-10T13:41:09.395Z,18.73
2018-02-10T13:43:38.544Z,18.73
2018-02-10T13:46:07.848Z,31.43
2018-02-10T13:48:42.883Z,21.37
2018-02-10T13:51:13.283Z,18.23
2018-02-10T13:53:43.539Z,25.30
2018-02-10T13:56:12.885Z,25.60
2018-02-10T13:58:42.770Z,25.40
2018-02-10T14:01:11.878Z,28.40
2018-02-10T14:03:41.142Z,26.90
2018-02-10T14:06:11.057Z,28.60
2018-02-10T14:08:40.318Z,29.77
2018-02-10T14:11:09.356Z,33.40
2018-02-10T14:13:39.388Z,34.70
2018-02-10T14:16:08.740Z,33.93
2018-02-10T14:18:38.081Z,26.20
2018-02-10T14:21:07.887Z,25.33
2018-02-10T14:23:37.438Z,31.80
2018-02-10T14:26:06.580Z,29.57
2018-02-10T14:28:35.746Z,25.80
2018-02-10T14:31:06.736Z,22.50
2018-02-10T14:33:36.803Z,22.03
2018-02-10T14:36:07.740Z,22.80
2018-02-10T14:38:36.997Z,25.50
2018-02-10T14:41:06.095Z,25.10
2018-02-10T14:43:36.106Z,25.30
2018-02-10T14:46:07.475Z,27.10
2018-02-10T14:48:36.758Z,28.80
2018-02-10T14:51:06.005Z,30.63
2018-02-10T14:53:35.984Z,29.23
2018-02-10T14:56:06.070Z,26.03
2018-02-10T14:58:35.310Z,22.40
2018-02-10T15:01:05.168Z,20.47
2018-02-10T15:03:34.867Z,31.03
2018-02-10T15:06:05.677Z,22.50
2018-02-10T15:08:34.905Z,25.53
2018-02-10T15:11:05.693Z,22.30
2018-02-10T15:13:35.131Z,18.90
2018-02-10T15:16:04.448Z,21.77
2018-02-10T15:18:34.904Z,20.53
2018-02-10T15:21:04.081Z,24.43
2018-02-10T15:23:34.478Z,25.77
2018-02-10T15:26:03.794Z,23.23
2018-02-10T15:28:33.258Z,18.80
2018-02-10T15:31:14.241Z,20.57
2018-02-10T15:33:54.690Z,17.40
2018-02-10T15:36:23.953Z,20.60
2018-02-10T15:38:54.064Z,19.63
2018-02-10T15:41:23.365Z,19.93
2018-02-10T15:43:54.864Z,21.90
2018-02-10T15:46:24.429Z,21.00
2018-02-10T15:48:54.135Z,23.17
2018-02-10T15:51:24.873Z,22.87
2018-02-10T15:53:54.064Z,17.73
2018-02-10T15:56:23.592Z,20.93
2018-02-10T15:58:53.355Z,20.10
2018-02-10T16:01:22.917Z,23.87
2018-02-10T16:03:52.570Z,26.60
2018-02-10T16:06:22.214Z,16.83
2018-02-10T16:08:51.879Z,22.17
2018-02-10T16:11:21.079Z,23.43
2018-02-10T16:13:52.565Z,22.87
2018-02-10T16:16:22.165Z,26.37
2018-02-10T16:18:51.706Z,28.50
2018-02-10T16:21:21.383Z,18.27
2018-02-10T16:23:50.649Z,19.30
2018-02-10T16:26:21.466Z,20.03
2018-02-10T16:28:51.776Z,21.33
2018-02-10T16:31:21.358Z,18.83
2018-02-10T16:33:50.830Z,17.53
2018-02-10T16:36:21.862Z,20.03
2018-02-10T16:38:51.615Z,18.43
2018-02-10T16:41:22.057Z,18.13
2018-02-10T16:43:54.043Z,20.77
2018-02-10T16:46:23.006Z,23.27
2018-02-10T16:48:52.290Z,20.47
2018-02-10T16:51:21.657Z,19.43
2018-02-10T16:53:50.917Z,23.90
2018-02-10T16:56:20.172Z,19.87
2018-02-10T16:58:50.818Z,18.60
2018-02-10T17:01:20.945Z,21.63
2018-02-10T17:03:50.434Z,19.00
2018-02-10T17:06:21.801Z,21.70
2018-02-10T17:08:51.433Z,24.13
2018-02-10T17:11:20.682Z,20.13
2018-02-10T17:13:50.045Z,23.00
2018-02-10T17:16:20.145Z,21.70
2018-02-10T17:18:50.005Z,20.10
2018-02-10T17:21:20.490Z,21.53
2018-02-10T17:23:49.842Z,22.53
2018-02-10T17:26:20.106Z,20.00
2018-02-10T17:28:54.953Z,22.20
2018-02-10T17:31:25.279Z,23.83
2018-02-10T17:33:54.650Z,23.00
2018-02-10T17:36:23.897Z,21.20
2018-02-10T17:38:53.124Z,19.30
2018-02-10T17:41:22.805Z,19.87
2018-02-10T17:43:54.633Z,22.00
2018-02-10T17:46:24.647Z,20.30
2018-02-10T17:48:53.815Z,22.90
2018-02-10T17:51:23.101Z,22.33
2018-02-10T17:53:52.471Z,32.20
2018-02-10T17:56:22.577Z,21.17
2018-02-10T17:58:53.788Z,21.70
2018-02-10T18:01:22.805Z,22.17
2018-02-10T18:03:52.085Z,20.50
2018-02-10T18:06:21.073Z,20.50
2018-02-10T18:08:50.615Z,21.17
2018-02-10T18:11:20.203Z,27.80
2018-02-10T18:13:54.971Z,20.30
2018-02-10T18:16:24.156Z,21.47
2018-02-10T18:18:53.580Z,19.13
2018-02-10T18:21:24.565Z,24.00
2018-02-10T18:23:53.858Z,21.67
2018-02-10T18:26:28.949Z,24.57
2018-02-10T18:28:58.202Z,21.43
2018-02-10T18:31:27.296Z,19.30
2018-02-10T18:33:58.283Z,24.83
2018-02-10T18:36:27.570Z,19.60
2018-02-10T18:38:56.981Z,23.77
2018-02-10T18:41:27.757Z,20.33
2018-02-10T18:43:56.768Z,24.60
2018-02-10T18:46:26.006Z,20.60
2018-02-10T18:48:58.555Z,29.20
2018-02-10T18:51:27.746Z,25.87
2018-02-10T18:53:56.676Z,23.37
2018-02-10T18:56:29.384Z,25.30
2018-02-10T18:58:58.618Z,23.73
2018-02-10T19:01:28.751Z,21.70
2018-02-10T19:03:58.096Z,18.17
2018-02-10T19:06:27.445Z,22.13
2018-02-10T19:08:56.742Z,17.10
2018-02-10T19:11:25.880Z,23.37
2018-02-10T19:13:55.086Z,17.90
2018-02-10T19:16:24.397Z,19.63
2018-02-10T19:18:53.785Z,18.90
2018-02-10T19:21:23.295Z,18.20
2018-02-10T19:23:52.549Z,33.30
2018-02-10T19:26:24.000Z,16.90
2018-02-10T19:28:53.196Z,18.40
2018-02-10T19:31:22.276Z,20.70
2018-02-10T19:33:52.227Z,23.70
2018-02-10T19:36:21.409Z,18.70
2018-02-10T19:38:50.597Z,16.80
2018-02-10T19:41:20.735Z,22.43
2018-02-10T19:43:49.724Z,20.57
2018-02-10T19:46:19.058Z,26.17
2018-02-10T19:48:49.021Z,18.47
2018-02-10T19:51:18.093Z,21.60
2018-02-10T19:53:47.105Z,19.57
2018-02-10T19:56:17.859Z,24.13
2018-02-10T19:58:47.274Z,24.00
2018-02-10T20:01:16.314Z,24.80
2018-02-10T20:03:50.579Z,19.97
2018-02-10T20:06:20.321Z,25.03
2018-02-10T20:08:49.485Z,23.17
2018-02-10T20:11:21.766Z,24.33
2018-02-10T20:13:51.013Z,20.97
2018-02-10T20:16:20.160Z,16.80
2018-02-10T20:18:50.212Z,22.40
2018-02-10T20:21:20.842Z,22.00
2018-02-10T20:23:50.006Z,18.80
2018-02-10T20:28:55.161Z,11.00
2018-02-10T20:31:25.190Z,27.00
2018-02-10T20:33:54.731Z,19.57
2018-02-10T20:36:23.784Z,18.70
2018-02-10T20:38:53.819Z,27.37
2018-02-10T20:41:23.202Z,23.23
2018-02-10T20:43:52.854Z,20.67
2018-02-10T20:46:22.525Z,20.70
2018-02-10T20:48:53.328Z,28.13
2018-02-10T20:51:22.494Z,23.03
2018-02-10T20:53:52.382Z,17.70
2018-02-10T20:56:24.977Z,19.47
2018-02-10T20:58:54.917Z,20.93
2018-02-10T21:01:23.964Z,15.53
2018-02-10T21:03:56.661Z,19.43
2018-02-10T21:06:26.575Z,23.73
2018-02-10T21:08:55.701Z,18.83
2018-02-10T21:11:27.378Z,15.83
2018-02-10T21:13:56.403Z,20.37
2018-02-10T21:16:25.623Z,20.13
2018-02-10T21:18:56.634Z,20.43
2018-02-10T21:21:26.871Z,20.67
2018-02-10T21:23:56.816Z,18.13
2018-02-10T21:26:31.203Z,20.03
2018-02-10T21:29:00.840Z,17.80
2018-02-10T21:31:30.223Z,17.27
2018-02-10T21:34:01.941Z,21.20
2018-02-10T21:36:31.876Z,21.20
2018-02-10T21:39:01.806Z,16.43
2018-02-10T21:41:30.958Z,16.60
2018-02-10T21:44:00.196Z,24.73
2018-02-10T21:46:29.259Z,24.03
2018-02-10T21:49:00.195Z,17.10
2018-02-10T21:51:30.211Z,23.83
2018-02-10T21:54:00.216Z,19.47
2018-02-10T21:56:29.615Z,16.90
2018-02-10T21:58:59.575Z,18.80
2018-02-10T22:01:28.718Z,19.40
2018-02-10T22:03:59.571Z,19.63
2018-02-10T22:06:28.782Z,16.83
2018-02-10T22:08:57.930Z,20.97
2018-02-10T22:11:28.050Z,16.30
2018-02-10T22:13:57.301Z,18.23
2018-02-10T22:16:27.257Z,16.80
2018-02-10T22:18:58.572Z,18.13
2018-02-10T22:21:27.813Z,16.83
2018-02-10T22:23:57.274Z,15.50
2018-02-10T22:26:27.217Z,21.10
2018-02-10T22:28:56.663Z,17.57
2018-02-10T22:31:26.764Z,16.93
2018-02-10T22:33:58.408Z,20.50
2018-02-10T22:36:27.807Z,15.27
2018-02-10T22:38:58.067Z,18.63
2018-02-10T22:41:28.564Z,19.20
2018-02-10T22:43:58.126Z,16.83
2018-02-10T22:46:27.412Z,18.47
2018-02-10T22:48:56.994Z,20.40
2018-02-10T22:51:26.390Z,19.90
2018-02-10T22:53:55.940Z,34.23
2018-02-10T22:56:27.462Z,26.13
2018-02-10T22:58:57.573Z,29.00
2018-02-10T23:01:27.263Z,25.80
2018-02-10T23:03:58.283Z,32.50
2018-02-10T23:06:27.902Z,31.90
2018-02-10T23:08:57.317Z,28.30
2018-02-10T23:11:31.142Z,31.33
2018-02-10T23:14:00.484Z,29.17
2018-02-10T23:16:29.533Z,30.40
2018-02-10T23:19:00.418Z,29.33
2018-02-10T23:21:29.574Z,29.40
2018-02-10T23:23:58.805Z,29.87
2018-02-10T23:26:30.189Z,34.22
2018-02-10T23:28:59.929Z,28.40
2018-02-10T23:31:28.915Z,31.87
2018-02-10T23:33:58.301Z,29.95
2018-02-10T23:36:27.603Z,27.47
2018-02-10T23:38:57.241Z,36.03
2018-02-10T23:41:29.056Z,34.57
2018-02-10T23:43:58.295Z,25.20
2018-02-10T23:46:27.590Z,26.65
2018-02-10T23:48:56.792Z,21.75
2018-02-10T23:51:26.143Z,23.55
2018-02-10T23:53:55.179Z,19.17
2018-02-10T23:56:25.168Z,21.77
2018-02-10T23:58:54.198Z,21.67
